createdAt,value
2023-02-15T00:01:14.961Z,3.69
2023-02-15T00:03:43.228Z,3.72
2023-02-15T00:06:11.512Z,3.68
2023-02-15T00:08:39.964Z,3.61
2023-02-15T00:11:09.435Z,3.59
2023-02-15T00:13:40.084Z,3.59
2023-02-15T00:16:10.305Z,3.49
2023-02-15T00:18:39.276Z,3.49
2023-02-15T00:21:10.478Z,3.43
2023-02-15T00:23:38.875Z,3.40
2023-02-15T00:26:12.357Z,3.38
2023-02-15T00:28:41.883Z,3.33
2023-02-15T00:31:11.924Z,3.32
2023-02-15T00:33:45.391Z,3.31
2023-02-15T00:36:14.376Z,3.21
2023-02-15T00:38:46.572Z,3.24
2023-02-15T00:41:14.732Z,3.24
2023-02-15T00:43:44.296Z,3.27
2023-02-15T00:46:12.669Z,3.32
2023-02-15T00:48:41.475Z,3.29
2023-02-15T00:51:09.554Z,3.33
2023-02-15T00:53:37.814Z,3.27
2023-02-15T00:56:06.115Z,3.29
2023-02-15T00:58:34.425Z,3.33
2023-02-15T01:01:08.161Z,3.38
2023-02-15T01:03:37.085Z,3.40
2023-02-15T01:06:06.101Z,3.33
2023-02-15T01:08:34.305Z,3.27
2023-02-15T01:11:06.979Z,3.40
2023-02-15T01:13:35.208Z,3.39
2023-02-15T01:16:04.827Z,3.42
2023-02-15T01:18:35.166Z,3.39
2023-02-15T01:21:11.649Z,3.38
2023-02-15T01:23:39.848Z,3.42
2023-02-15T01:26:08.038Z,3.35
2023-02-15T01:28:36.942Z,3.43
2023-02-15T01:31:09.570Z,3.45
2023-02-15T01:33:39.861Z,3.43
2023-02-15T01:36:08.379Z,3.37
2023-02-15T01:38:37.273Z,3.41
2023-02-15T01:41:19.840Z,3.40
2023-02-15T01:43:50.154Z,3.35
2023-02-15T01:46:20.422Z,3.39
2023-02-15T01:48:54.209Z,3.25
2023-02-15T01:51:26.632Z,3.28
2023-02-15T01:53:59.256Z,3.40
2023-02-15T01:56:31.796Z,3.44
2023-02-15T01:59:04.774Z,3.42
2023-02-15T02:01:33.276Z,3.44
2023-02-15T02:04:14.457Z,3.46
2023-02-15T02:06:42.672Z,3.41
2023-02-15T02:09:11.477Z,3.41
2023-02-15T02:11:43.090Z,3.38
2023-02-15T02:14:11.286Z,3.39
2023-02-15T02:16:48.766Z,3.36
2023-02-15T02:19:50.547Z,3.33
2023-02-15T02:22:46.906Z,3.33
2023-02-15T02:25:35.130Z,3.29
2023-02-15T02:28:15.376Z,3.33
2023-02-15T02:31:04.651Z,3.34
2023-02-15T02:33:49.702Z,3.35
2023-02-15T02:36:27.181Z,3.32
2023-02-15T02:39:09.154Z,3.30
2023-02-15T02:41:46.636Z,3.29
2023-02-15T02:44:25.083Z,3.28
2023-02-15T02:46:59.682Z,3.31
2023-02-15T02:49:38.461Z,3.29
2023-02-15T02:52:08.978Z,3.28
2023-02-15T02:54:38.097Z,3.20
2023-02-15T02:57:11.090Z,3.17
2023-02-15T02:59:44.514Z,3.11
2023-02-15T03:02:16.434Z,3.06
2023-02-15T03:04:50.256Z,3.13
2023-02-15T03:07:23.107Z,3.11
2023-02-15T03:09:53.757Z,3.01
2023-02-15T03:12:25.760Z,3.05
2023-02-15T03:14:57.640Z,3.08
2023-02-15T03:17:29.767Z,3.08
2023-02-15T03:20:04.924Z,3.08
2023-02-15T03:22:38.094Z,3.11
2023-02-15T03:25:11.110Z,3.10
2023-02-15T03:27:43.850Z,3.11
2023-02-15T03:30:17.603Z,3.10
2023-02-15T03:32:47.330Z,3.16
2023-02-15T03:35:17.283Z,3.12
2023-02-15T03:37:52.574Z,3.13
2023-02-15T03:40:42.815Z,3.11
2023-02-15T03:43:17.563Z,3.07
2023-02-15T03:45:56.722Z,3.12
2023-02-15T03:48:28.688Z,3.09
2023-02-15T03:51:21.750Z,3.06
2023-02-15T03:53:51.731Z,3.08
2023-02-15T03:56:19.874Z,3.01
2023-02-15T03:59:05.557Z,3.04
2023-02-15T04:01:56.620Z,3.15
2023-02-15T04:04:27.607Z,3.13
2023-02-15T04:06:57.167Z,3.10
2023-02-15T04:09:45.728Z,3.11
2023-02-15T04:12:13.920Z,3.09
2023-02-15T04:14:59.737Z,3.00
2023-02-15T04:17:28.468Z,2.93
2023-02-15T04:20:14.176Z,2.98
2023-02-15T04:23:01.111Z,2.96
2023-02-15T04:25:29.163Z,2.99
2023-02-15T04:27:57.463Z,2.96
2023-02-15T04:30:28.819Z,2.85
2023-02-15T04:32:58.773Z,2.86
2023-02-15T04:35:27.044Z,2.79
2023-02-15T04:37:56.985Z,2.81
2023-02-15T04:40:25.315Z,2.77
2023-02-15T04:42:53.532Z,2.76
2023-02-15T04:45:21.803Z,2.71
2023-02-15T04:47:50.481Z,2.66
2023-02-15T04:50:18.855Z,2.64
2023-02-15T04:52:47.218Z,2.57
2023-02-15T04:55:17.255Z,2.56
2023-02-15T04:57:45.414Z,2.57
2023-02-15T05:00:14.374Z,2.61
2023-02-15T05:02:42.577Z,2.63
2023-02-15T05:05:14.127Z,2.64
2023-02-15T05:07:42.256Z,2.60
2023-02-15T05:10:11.392Z,2.55
2023-02-15T05:12:40.914Z,2.56
2023-02-15T05:15:09.972Z,2.56
2023-02-15T05:17:38.286Z,2.62
2023-02-15T05:20:07.675Z,2.53
2023-02-15T05:22:35.806Z,2.62
2023-02-15T05:25:21.453Z,2.66
2023-02-15T05:28:08.384Z,2.71
2023-02-15T05:30:37.211Z,2.63
2023-02-15T05:33:05.631Z,2.64
2023-02-15T05:35:34.772Z,2.73
2023-02-15T05:38:02.917Z,2.72
2023-02-15T05:40:32.168Z,2.80
2023-02-15T05:43:02.046Z,2.87
2023-02-15T05:45:30.263Z,2.86
2023-02-15T05:47:59.148Z,2.89
2023-02-15T05:50:27.941Z,2.99
2023-02-15T05:52:56.045Z,2.98
2023-02-15T05:55:24.235Z,3.01
2023-02-15T05:57:52.555Z,3.03
2023-02-15T06:00:22.876Z,3.13
2023-02-15T06:02:50.964Z,3.11
2023-02-15T06:05:19.229Z,3.23
2023-02-15T06:07:48.153Z,3.36
2023-02-15T06:10:16.497Z,3.44
2023-02-15T06:12:45.815Z,3.52
2023-02-15T06:15:14.985Z,3.58
2023-02-15T06:17:45.067Z,3.66
2023-02-15T06:20:14.246Z,3.74
2023-02-15T06:22:42.552Z,3.72
2023-02-15T06:25:12.429Z,3.85
2023-02-15T06:27:43.940Z,3.90
2023-02-15T06:30:14.006Z,4.02
2023-02-15T06:32:42.375Z,4.04
2023-02-15T06:35:12.632Z,4.11
2023-02-15T06:37:41.261Z,4.20
2023-02-15T06:40:11.346Z,4.24
2023-02-15T06:42:39.452Z,4.35
2023-02-15T06:45:08.597Z,4.37
2023-02-15T06:47:36.876Z,4.49
2023-02-15T06:50:06.404Z,4.59
2023-02-15T06:52:36.662Z,4.63
2023-02-15T06:55:04.906Z,4.70
2023-02-15T06:57:34.402Z,4.74
2023-02-15T07:00:02.787Z,4.78
2023-02-15T07:02:31.077Z,4.88
2023-02-15T07:04:59.478Z,4.96
2023-02-15T07:07:27.748Z,5.06
2023-02-15T07:09:57.328Z,5.10
2023-02-15T07:12:43.828Z,5.16
2023-02-15T07:15:13.789Z,5.21
2023-02-15T07:17:42.095Z,5.27
2023-02-15T07:20:12.863Z,5.32
2023-02-15T07:22:41.250Z,5.40
2023-02-15T07:25:13.173Z,5.45
2023-02-15T07:27:43.095Z,5.47
2023-02-15T07:30:13.957Z,5.53
2023-02-15T07:33:05.074Z,5.60
2023-02-15T07:35:33.990Z,5.70
2023-02-15T07:38:02.501Z,5.67
2023-02-15T07:40:32.407Z,5.74
2023-02-15T07:43:01.117Z,5.74
2023-02-15T07:45:29.479Z,5.80
2023-02-15T07:47:58.457Z,5.87
2023-02-15T07:50:26.676Z,5.94
2023-02-15T07:52:55.165Z,6.03
2023-02-15T07:55:23.586Z,6.16
2023-02-15T07:57:55.055Z,6.18
2023-02-15T08:00:25.967Z,6.18
2023-02-15T08:03:10.840Z,6.23
2023-02-15T08:05:39.125Z,6.25
2023-02-15T08:08:07.464Z,6.23
2023-02-15T08:10:53.546Z,6.36
2023-02-15T08:13:23.254Z,6.39
2023-02-15T08:15:51.822Z,6.48
2023-02-15T08:18:20.029Z,6.53
2023-02-15T08:20:51.549Z,6.61
2023-02-15T08:23:19.723Z,6.65
2023-02-15T08:25:48.072Z,6.63
2023-02-15T08:28:16.198Z,6.66
2023-02-15T08:30:49.903Z,6.65
2023-02-15T08:33:19.055Z,6.70
2023-02-15T08:35:47.369Z,6.85
2023-02-15T08:38:15.833Z,6.99
2023-02-15T08:40:44.057Z,7.03
2023-02-15T08:43:12.187Z,7.17
2023-02-15T08:45:40.545Z,7.23
2023-02-15T08:48:10.362Z,7.25
2023-02-15T08:50:38.760Z,7.29
2023-02-15T08:53:06.851Z,7.35
2023-02-15T08:55:34.910Z,7.44
2023-02-15T08:58:03.135Z,7.41
2023-02-15T09:00:32.281Z,7.51
2023-02-15T09:03:00.376Z,7.53
2023-02-15T09:05:30.168Z,7.54
2023-02-15T09:07:58.250Z,7.57
2023-02-15T09:10:26.435Z,7.70
2023-02-15T09:12:55.151Z,7.76
2023-02-15T09:15:24.521Z,7.79
2023-02-15T09:17:52.677Z,7.75
2023-02-15T09:20:21.138Z,7.91
2023-02-15T09:22:51.063Z,7.97
2023-02-15T09:25:19.323Z,8.05
2023-02-15T09:27:47.670Z,8.03
2023-02-15T09:30:16.286Z,8.14
2023-02-15T09:32:44.352Z,8.17
2023-02-15T09:35:13.279Z,8.16
2023-02-15T09:37:41.443Z,8.23
2023-02-15T09:40:18.021Z,8.20
2023-02-15T09:43:12.696Z,8.30
2023-02-15T09:45:57.596Z,8.35
2023-02-15T09:48:41.604Z,8.41
2023-02-15T09:51:39.410Z,8.51
2023-02-15T09:54:28.168Z,8.53
2023-02-15T09:57:01.983Z,8.71
2023-02-15T09:59:49.416Z,8.74
2023-02-15T10:02:37.601Z,8.85
2023-02-15T10:05:20.858Z,8.87
2023-02-15T10:08:18.102Z,8.92
2023-02-15T10:10:56.428Z,9.05
2023-02-15T10:13:37.827Z,9.06
2023-02-15T10:16:20.590Z,8.97
2023-02-15T10:18:58.216Z,8.94
2023-02-15T10:21:45.442Z,8.95
2023-02-15T10:24:49.561Z,9.00
2023-02-15T10:27:22.401Z,9.04
2023-02-15T10:30:05.978Z,9.02
2023-02-15T10:32:41.416Z,9.14
2023-02-15T10:35:22.390Z,9.21
2023-02-15T10:38:09.456Z,9.20
2023-02-15T10:40:49.408Z,9.23
2023-02-15T10:43:34.650Z,9.34
2023-02-15T10:46:14.519Z,9.35
2023-02-15T10:49:10.632Z,9.40
2023-02-15T10:51:51.019Z,9.51
2023-02-15T10:54:29.972Z,9.46
2023-02-15T10:57:07.302Z,9.49
2023-02-15T11:00:00.790Z,9.53
2023-02-15T11:02:46.704Z,9.60
2023-02-15T11:05:27.869Z,9.54
2023-02-15T11:08:06.239Z,9.47
2023-02-15T11:10:38.914Z,9.53
2023-02-15T11:13:14.188Z,9.59
2023-02-15T11:15:47.052Z,9.57
2023-02-15T11:18:24.955Z,9.61
2023-02-15T11:20:58.859Z,9.71
2023-02-15T11:23:28.702Z,9.94
2023-02-15T11:26:00.332Z,9.84
2023-02-15T11:28:36.622Z,9.91
2023-02-15T11:31:16.213Z,10.00
2023-02-15T11:33:49.051Z,9.87
2023-02-15T11:36:22.152Z,9.87
2023-02-15T11:38:55.210Z,9.89
2023-02-15T11:41:28.312Z,9.96
2023-02-15T11:44:03.354Z,9.98
2023-02-15T11:46:31.640Z,10.10
2023-02-15T11:49:01.883Z,10.11
2023-02-15T11:51:31.650Z,10.15
2023-02-15T11:53:59.794Z,10.02
2023-02-15T11:56:28.380Z,10.15
2023-02-15T11:59:01.591Z,10.11
2023-02-15T12:01:34.573Z,10.11
2023-02-15T12:04:10.320Z,10.04
2023-02-15T12:06:44.207Z,10.25
2023-02-15T12:09:23.795Z,10.39
2023-02-15T12:11:52.031Z,10.32
2023-02-15T12:14:21.974Z,10.31
2023-02-15T12:16:52.927Z,10.48
2023-02-15T12:19:33.837Z,10.50
2023-02-15T12:22:04.576Z,10.45
2023-02-15T12:24:37.453Z,10.48
2023-02-15T12:27:08.690Z,10.46
2023-02-15T12:29:45.307Z,10.48
2023-02-15T12:32:20.891Z,10.59
2023-02-15T12:34:53.192Z,10.59
2023-02-15T12:37:25.348Z,10.70
2023-02-15T12:39:57.104Z,10.62
2023-02-15T12:42:26.931Z,10.54
2023-02-15T12:44:58.360Z,10.57
2023-02-15T12:47:30.833Z,10.64
2023-02-15T12:50:24.588Z,10.60
2023-02-15T12:53:07.473Z,10.55
2023-02-15T12:55:35.741Z,10.60
2023-02-15T12:58:17.174Z,10.69
2023-02-15T13:00:45.584Z,10.75
2023-02-15T13:03:21.552Z,10.75
2023-02-15T13:05:55.563Z,10.68
2023-02-15T13:08:30.068Z,10.69
2023-02-15T13:11:03.116Z,10.73
2023-02-15T13:13:34.440Z,10.78
2023-02-15T13:16:07.268Z,10.91
2023-02-15T13:18:39.552Z,10.84
2023-02-15T13:21:14.802Z,10.81
2023-02-15T13:23:49.699Z,10.75
2023-02-15T13:26:21.804Z,10.78
2023-02-15T13:28:54.698Z,10.82
2023-02-15T13:31:26.214Z,10.80
2023-02-15T13:33:58.092Z,10.75
2023-02-15T13:36:34.666Z,10.63
2023-02-15T13:39:15.870Z,10.94
2023-02-15T13:41:55.363Z,10.91
2023-02-15T13:44:35.042Z,10.88
2023-02-15T13:47:19.535Z,10.92
2023-02-15T13:50:00.632Z,11.06
2023-02-15T13:52:35.275Z,10.91
2023-02-15T13:55:28.929Z,10.88
2023-02-15T13:58:18.506Z,10.94
2023-02-15T14:00:56.342Z,11.00
2023-02-15T14:04:01.830Z,11.04
2023-02-15T14:06:50.788Z,10.92
2023-02-15T14:09:30.602Z,10.97
2023-02-15T14:12:19.534Z,10.84
2023-02-15T14:15:21.822Z,10.88
2023-02-15T14:18:02.744Z,10.93
2023-02-15T14:20:54.371Z,10.88
2023-02-15T14:23:37.294Z,10.75
2023-02-15T14:26:12.614Z,10.78
2023-02-15T14:28:48.894Z,10.73
2023-02-15T14:31:18.700Z,10.66
2023-02-15T14:33:58.582Z,10.61
2023-02-15T14:36:31.385Z,10.73
2023-02-15T14:39:31.645Z,10.94
2023-02-15T14:42:09.255Z,10.80
2023-02-15T14:44:45.186Z,10.71
2023-02-15T14:47:21.753Z,10.64
2023-02-15T14:49:50.128Z,10.58
2023-02-15T14:52:18.197Z,10.56
2023-02-15T14:54:58.431Z,10.59
2023-02-15T14:57:34.850Z,10.47
2023-02-15T15:00:24.735Z,10.47
2023-02-15T15:02:55.864Z,10.34
2023-02-15T15:05:28.740Z,10.27
2023-02-15T15:08:00.215Z,10.23
2023-02-15T15:10:41.865Z,10.43
2023-02-15T15:13:54.420Z,10.51
2023-02-15T15:16:52.396Z,10.45
2023-02-15T15:20:08.576Z,10.25
2023-02-15T15:22:39.171Z,10.08
2023-02-15T15:25:13.018Z,9.98
2023-02-15T15:27:49.652Z,9.90
2023-02-15T15:31:00.811Z,9.89
2023-02-15T15:34:12.241Z,9.82
2023-02-15T15:37:13.021Z,9.68
2023-02-15T15:40:15.716Z,9.63
2023-02-15T15:42:53.982Z,9.51
2023-02-15T15:45:37.805Z,9.42
2023-02-15T15:48:34.804Z,9.32
2023-02-15T15:51:07.973Z,9.26
2023-02-15T15:53:43.605Z,9.19
2023-02-15T15:56:17.089Z,9.09
2023-02-15T15:58:51.985Z,9.02
2023-02-15T16:01:28.981Z,8.94
2023-02-15T16:03:59.549Z,8.98
2023-02-15T16:06:33.481Z,9.05
2023-02-15T16:09:15.555Z,9.08
2023-02-15T16:11:44.382Z,9.08
2023-02-15T16:14:16.400Z,9.07
2023-02-15T16:16:53.333Z,9.02
2023-02-15T16:19:26.744Z,9.00
2023-02-15T16:21:58.706Z,8.94
2023-02-15T16:25:24.398Z,8.86
2023-02-15T16:28:12.361Z,8.69
2023-02-15T16:31:23.518Z,8.53
2023-02-15T16:34:02.439Z,8.42
2023-02-15T16:36:58.566Z,8.33
2023-02-15T16:39:42.463Z,8.18
2023-02-15T16:42:13.608Z,8.07
2023-02-15T16:44:43.275Z,7.99
2023-02-15T16:47:20.660Z,7.90
2023-02-15T16:50:22.874Z,7.76
2023-02-15T16:53:20.368Z,7.73
2023-02-15T16:55:52.768Z,7.61
2023-02-15T16:58:32.251Z,7.52
2023-02-15T17:01:03.981Z,7.41
2023-02-15T17:03:32.625Z,7.33
2023-02-15T17:06:04.439Z,7.26
2023-02-15T17:08:34.279Z,7.22
2023-02-15T17:11:16.157Z,7.15
2023-02-15T17:14:20.942Z,7.13
2023-02-15T17:16:57.906Z,7.51
2023-02-15T17:19:48.428Z,7.40
2023-02-15T17:22:23.351Z,7.13
2023-02-15T17:25:27.256Z,7.04
2023-02-15T17:28:02.013Z,6.91
2023-02-15T17:30:35.289Z,6.81
2023-02-15T17:33:23.995Z,6.75
2023-02-15T17:36:10.257Z,6.63
2023-02-15T17:38:42.886Z,6.61
2023-02-15T17:41:14.692Z,6.57
2023-02-15T17:43:43.231Z,6.52
2023-02-15T17:46:12.179Z,6.46
2023-02-15T17:48:43.842Z,6.65
2023-02-15T17:51:16.349Z,6.65
2023-02-15T17:54:05.779Z,6.65
2023-02-15T17:56:33.246Z,6.73
2023-02-15T17:59:01.586Z,6.79
2023-02-15T18:01:47.768Z,6.88
2023-02-15T18:04:34.834Z,6.88
2023-02-15T18:07:20.608Z,6.85
2023-02-15T18:10:06.809Z,6.66
2023-02-15T18:12:39.146Z,6.80
2023-02-15T18:15:12.724Z,6.80
2023-02-15T18:17:44.104Z,6.73
2023-02-15T18:20:22.098Z,6.63
2023-02-15T18:22:50.985Z,6.59
2023-02-15T18:25:22.385Z,6.59
2023-02-15T18:27:56.917Z,6.48
2023-02-15T18:30:29.473Z,6.34
2023-02-15T18:33:00.125Z,6.22
2023-02-15T18:35:35.447Z,6.20
2023-02-15T18:38:04.925Z,6.16
2023-02-15T18:40:33.234Z,6.05
2023-02-15T18:43:03.452Z,5.99
2023-02-15T18:45:33.453Z,5.87
2023-02-15T18:48:03.179Z,5.97
2023-02-15T18:50:36.598Z,5.93
2023-02-15T18:53:08.416Z,5.83
2023-02-15T18:55:36.774Z,5.76
2023-02-15T18:58:05.913Z,5.70
2023-02-15T19:00:36.365Z,5.75
2023-02-15T19:03:06.238Z,5.87
2023-02-15T19:05:38.262Z,5.80
2023-02-15T19:08:06.734Z,5.67
2023-02-15T19:10:37.301Z,5.59
2023-02-15T19:13:11.624Z,5.59
2023-02-15T19:15:42.154Z,5.76
2023-02-15T19:18:10.271Z,5.79
2023-02-15T19:20:43.736Z,5.82
2023-02-15T19:23:19.610Z,6.10
2023-02-15T19:25:49.805Z,6.15
2023-02-15T19:28:21.258Z,6.01
2023-02-15T19:30:49.598Z,5.95
2023-02-15T19:33:24.331Z,5.96
2023-02-15T19:35:57.801Z,5.99
2023-02-15T19:38:31.404Z,5.97
2023-02-15T19:41:05.104Z,5.88
2023-02-15T19:43:56.801Z,5.79
2023-02-15T19:46:30.491Z,5.88
2023-02-15T19:48:59.271Z,5.84
2023-02-15T19:51:30.201Z,5.74
2023-02-15T19:53:59.596Z,5.56
2023-02-15T19:56:29.449Z,5.31
2023-02-15T19:58:59.630Z,5.16
2023-02-15T20:01:29.302Z,5.05
2023-02-15T20:03:57.758Z,5.10
2023-02-15T20:06:26.290Z,4.98
2023-02-15T20:08:56.605Z,4.88
2023-02-15T20:11:25.826Z,4.85
2023-02-15T20:13:54.324Z,4.82
2023-02-15T20:16:22.769Z,4.81
2023-02-15T20:18:51.969Z,4.75
2023-02-15T20:21:24.150Z,4.90
2023-02-15T20:23:52.531Z,5.07
2023-02-15T20:26:25.283Z,5.09
2023-02-15T20:28:54.250Z,5.03
2023-02-15T20:31:23.246Z,4.91
2023-02-15T20:33:51.650Z,4.89
2023-02-15T20:36:22.036Z,4.85
2023-02-15T20:38:50.821Z,4.80
2023-02-15T20:41:37.716Z,4.88
2023-02-15T20:44:20.610Z,4.70
2023-02-15T20:46:50.238Z,4.78
2023-02-15T20:49:18.518Z,4.75
2023-02-15T20:51:48.662Z,4.67
2023-02-15T20:54:19.462Z,4.62
2023-02-15T20:56:50.536Z,4.50
2023-02-15T20:59:25.442Z,4.49
2023-02-15T21:02:01.005Z,4.67
2023-02-15T21:04:33.236Z,4.63
2023-02-15T21:07:01.969Z,4.75
2023-02-15T21:09:30.722Z,4.51
2023-02-15T21:12:04.520Z,4.53
2023-02-15T21:14:33.332Z,4.53
2023-02-15T21:17:01.604Z,4.60
2023-02-15T21:19:30.326Z,4.60
2023-02-15T21:22:01.197Z,4.47
2023-02-15T21:24:30.455Z,4.47
2023-02-15T21:27:03.678Z,4.36
2023-02-15T21:29:32.232Z,4.27
2023-02-15T21:32:01.446Z,4.24
2023-02-15T21:34:29.619Z,4.18
2023-02-15T21:36:57.667Z,4.18
2023-02-15T21:39:27.628Z,4.07
2023-02-15T21:42:14.932Z,3.98
2023-02-15T21:45:02.229Z,3.97
2023-02-15T21:47:51.082Z,3.82
2023-02-15T21:50:38.683Z,3.67
2023-02-15T21:53:08.462Z,3.55
2023-02-15T21:55:36.764Z,3.46
2023-02-15T21:58:06.137Z,3.40
2023-02-15T22:00:35.844Z,3.33
2023-02-15T22:03:06.371Z,3.28
2023-02-15T22:05:35.277Z,3.23
2023-02-15T22:08:03.444Z,3.17
2023-02-15T22:10:33.569Z,3.09
2023-02-15T22:13:03.271Z,3.02
2023-02-15T22:15:36.439Z,2.95
2023-02-15T22:18:05.265Z,2.92
2023-02-15T22:20:33.509Z,2.87
2023-02-15T22:23:01.504Z,2.83
2023-02-15T22:25:29.626Z,2.84
2023-02-15T22:27:57.858Z,2.86
2023-02-15T22:30:29.003Z,2.87
2023-02-15T22:33:01.081Z,3.17
2023-02-15T22:35:31.351Z,3.32
2023-02-15T22:38:00.110Z,3.16
2023-02-15T22:40:31.470Z,3.14
2023-02-15T22:43:03.250Z,3.07
2023-02-15T22:45:32.915Z,3.10
2023-02-15T22:48:04.259Z,3.28
2023-02-15T22:50:35.337Z,3.24
2023-02-15T22:53:05.113Z,3.19
2023-02-15T22:55:37.819Z,3.21
2023-02-15T22:58:06.411Z,3.22
2023-02-15T23:00:39.570Z,3.22
2023-02-15T23:03:16.930Z,3.19
2023-02-15T23:05:45.836Z,3.20
2023-02-15T23:08:14.645Z,3.17
2023-02-15T23:10:44.631Z,2.96
2023-02-15T23:13:26.140Z,3.01
2023-02-15T23:15:58.098Z,2.90
2023-02-15T23:18:30.737Z,2.78
2023-02-15T23:21:02.078Z,2.67
2023-02-15T23:23:34.481Z,2.59
2023-02-15T23:26:04.515Z,2.55
2023-02-15T23:28:35.800Z,2.68
2023-02-15T23:31:04.743Z,2.68
2023-02-15T23:33:36.235Z,2.69
2023-02-15T23:36:05.445Z,2.66
2023-02-15T23:38:35.420Z,2.67
2023-02-15T23:41:23.045Z,2.72
2023-02-15T23:43:56.246Z,2.74
2023-02-15T23:46:27.908Z,2.65
2023-02-15T23:48:58.010Z,2.54
2023-02-15T23:51:30.893Z,2.38
2023-02-15T23:53:59.574Z,2.39
2023-02-15T23:56:27.663Z,2.45
2023-02-15T23:58:55.809Z,2.48
